Tyrone, New York
Current Conditions -  °F | °C
As of 9:53 PM on Saturday 25 Oct 2014 (Local Time) from KPEO Reporting Station
Clear Clear  
Wind Chill: 55°   Ceiling: Unl
Heat Index: 55°   Visibility: 10mi
Dew Point: 45°   Wind: 10mph
Humidity: 69%   Direction: 230°SW
Pressure: 29.6"   Gusts: NA
Location:  42.41°N, 77.06°W
Report Text: KPEO 260153Z AUTO 23009KT 10SM CLR 13/07 A2960 RMK AO2 SLP023 T01280072
Loading
Personal Weather Stations






























Interactive Weather Map
Tropical Storm Tracking
New forecast layout! Learn more

10-Day Weather Forecast

Advertisements
Track Severe Weather on mobile